sensor_id;sensor_type;location;lat;lon;timestamp;pressure;altitude;pressure_sealevel;temperature;humidity
64792;BME280;51226;47.504;19.074;2023-05-11T00:03:02;100348.00;;;14.61;52.50
64792;BME280;51226;47.504;19.074;2023-05-11T00:06:05;100358.47;;;14.60;51.12
64792;BME280;51226;47.504;19.074;2023-05-11T00:09:08;100348.72;;;14.54;51.04
64792;BME280;51226;47.504;19.074;2023-05-11T00:12:12;100350.56;;;14.58;51.00
64792;BME280;51226;47.504;19.074;2023-05-11T00:15:15;100353.25;;;14.61;50.99
64792;BME280;51226;47.504;19.074;2023-05-11T00:18:18;100347.09;;;14.59;51.23
64792;BME280;51226;47.504;19.074;2023-05-11T00:21:21;100350.59;;;14.60;50.54
64792;BME280;51226;47.504;19.074;2023-05-11T00:24:24;100354.31;;;14.70;48.76
64792;BME280;51226;47.504;19.074;2023-05-11T00:27:27;100346.47;;;14.71;48.67
64792;BME280;51226;47.504;19.074;2023-05-11T00:30:30;100339.47;;;14.70;48.59
64792;BME280;51226;47.504;19.074;2023-05-11T00:33:32;100347.41;;;14.75;48.50
64792;BME280;51226;47.504;19.074;2023-05-11T00:36:35;100347.34;;;14.70;49.19
64792;BME280;51226;47.504;19.074;2023-05-11T00:39:42;100344.66;;;14.67;49.45
64792;BME280;51226;47.504;19.074;2023-05-11T00:42:45;100338.50;;;14.67;50.43
64792;BME280;51226;47.504;19.074;2023-05-11T00:45:48;100338.50;;;14.67;50.89
64792;BME280;51226;47.504;19.074;2023-05-11T00:48:51;100335.00;;;14.66;52.09
64792;BME280;51226;47.504;19.074;2023-05-11T00:51:53;100337.66;;;14.68;52.21
64792;BME280;51226;47.504;19.074;2023-05-11T00:54:56;100333.25;;;14.67;51.02
64792;BME280;51226;47.504;19.074;2023-05-11T00:57:59;100342.06;;;14.69;52.23
64792;BME280;51226;47.504;19.074;2023-05-11T01:01:02;100329.75;;;14.66;52.40
64792;BME280;51226;47.504;19.074;2023-05-11T01:04:05;100336.78;;;14.67;52.20
64792;BME280;51226;47.504;19.074;2023-05-11T01:10:17;100330.75;;;14.73;50.18
64792;BME280;51226;47.504;19.074;2023-05-11T01:13:26;100332.56;;;14.75;49.66
64792;BME280;51226;47.504;19.074;2023-05-11T01:16:34;100328.13;;;14.73;49.58
64792;BME280;51226;47.504;19.074;2023-05-11T01:19:46;100336.91;;;14.75;49.29
64792;BME280;51226;47.504;19.074;2023-05-11T01:32:45;100340.50;;;14.80;49.35
64792;BME280;51226;47.504;19.074;2023-05-11T01:35:49;100332.75;;;14.86;49.12
64792;BME280;51226;47.504;19.074;2023-05-11T01:38:54;100335.25;;;14.78;49.31
64792;BME280;51226;47.504;19.074;2023-05-11T01:42:03;100335.97;;;14.71;49.73
64792;BME280;51226;47.504;19.074;2023-05-11T01:45:08;100335.91;;;14.68;49.66
64792;BME280;51226;47.504;19.074;2023-05-11T01:48:17;100333.28;;;14.68;49.71
64792;BME280;51226;47.504;19.074;2023-05-11T01:51:20;100332.31;;;14.63;50.08
64792;BME280;51226;47.504;19.074;2023-05-11T01:54:25;100335.09;;;14.71;49.45
64792;BME280;51226;47.504;19.074;2023-05-11T01:57:29;100332.41;;;14.68;49.36
64792;BME280;51226;47.504;19.074;2023-05-11T02:00:32;100333.97;;;14.59;49.82
64792;BME280;51226;47.504;19.074;2023-05-11T02:03:35;100326.97;;;14.60;49.94
64792;BME280;51226;47.504;19.074;2023-05-11T02:06:39;100324.19;;;14.52;51.03
64792;BME280;51226;47.504;19.074;2023-05-11T02:09:42;100319.84;;;14.54;49.93
64792;BME280;51226;47.504;19.074;2023-05-11T02:12:46;100324.13;;;14.49;50.13
64792;BME280;51226;47.504;19.074;2023-05-11T02:15:50;100319.75;;;14.50;49.87
64792;BME280;51226;47.504;19.074;2023-05-11T02:18:54;100325.06;;;14.53;49.86
64792;BME280;51226;47.504;19.074;2023-05-11T02:21:59;100318.06;;;14.53;49.82
64792;BME280;51226;47.504;19.074;2023-05-11T02:25:02;100318.00;;;14.49;50.00
64792;BME280;51226;47.504;19.074;2023-05-11T02:28:06;100311.84;;;14.48;50.23
64792;BME280;51226;47.504;19.074;2023-05-11T02:31:11;100311.16;;;14.57;49.96
64792;BME280;51226;47.504;19.074;2023-05-11T02:34:20;100316.28;;;14.51;50.02
64792;BME280;51226;47.504;19.074;2023-05-11T02:37:25;100318.91;;;14.51;50.18
64792;BME280;51226;47.504;19.074;2023-05-11T02:40:33;100318.00;;;14.49;51.55
64792;BME280;51226;47.504;19.074;2023-05-11T02:43:36;100313.66;;;14.51;52.51
64792;BME280;51226;47.504;19.074;2023-05-11T02:46:42;100311.91;;;14.51;52.80
64792;BME280;51226;47.504;19.074;2023-05-11T02:49:49;100304.94;;;14.52;52.67
64792;BME280;51226;47.504;19.074;2023-05-11T02:52:55;100309.38;;;14.56;52.42
64792;BME280;51226;47.504;19.074;2023-05-11T02:56:00;100304.22;;;14.59;51.71
64792;BME280;51226;47.504;19.074;2023-05-11T02:59:03;100303.56;;;14.69;51.88
64792;BME280;51226;47.504;19.074;2023-05-11T03:02:06;100303.47;;;14.64;51.65
64792;BME280;51226;47.504;19.074;2023-05-11T03:05:09;100297.91;;;14.51;51.99
64792;BME280;51226;47.504;19.074;2023-05-11T03:08:11;100296.06;;;14.45;52.36
64792;BME280;51226;47.504;19.074;2023-05-11T03:11:14;100302.19;;;14.45;52.32
64792;BME280;51226;47.504;19.074;2023-05-11T03:14:19;100302.81;;;14.34;52.71
64792;BME280;51226;47.504;19.074;2023-05-11T03:17:23;100303.75;;;14.37;52.47
64792;BME280;51226;47.504;19.074;2023-05-11T03:20:26;100302.81;;;14.34;52.52
64792;BME280;51226;47.504;19.074;2023-05-11T03:23:29;100302.69;;;14.29;52.58
64792;BME280;51226;47.504;19.074;2023-05-11T03:26:33;100313.09;;;14.24;53.05
64792;BME280;51226;47.504;19.074;2023-05-11T03:29:36;100305.09;;;14.20;52.93
64792;BME280;51226;47.504;19.074;2023-05-11T03:32:41;100314.72;;;14.19;53.27
64792;BME280;51226;47.504;19.074;2023-05-11T03:35:44;100307.84;;;14.24;52.89
64792;BME280;51226;47.504;19.074;2023-05-11T03:38:48;100317.47;;;14.24;52.53
64792;BME280;51226;47.504;19.074;2023-05-11T03:41:54;100314.87;;;14.25;52.96
64792;BME280;51226;47.504;19.074;2023-05-11T03:44:58;100314.87;;;14.25;52.90
64792;BME280;51226;47.504;19.074;2023-05-11T03:48:02;100320.03;;;14.22;52.44
64792;BME280;51226;47.504;19.074;2023-05-11T03:51:06;100322.66;;;14.22;52.16
64792;BME280;51226;47.504;19.074;2023-05-11T03:54:10;100321.69;;;14.17;52.04
64792;BME280;51226;47.504;19.074;2023-05-11T03:57:14;100326.78;;;14.11;52.33
64792;BME280;51226;47.504;19.074;2023-05-11T04:00:17;100322.28;;;14.05;52.84
64792;BME280;51226;47.504;19.074;2023-05-11T04:03:21;100322.34;;;14.07;52.64
64792;BME280;51226;47.504;19.074;2023-05-11T04:06:24;100328.34;;;14.03;53.12
64792;BME280;51226;47.504;19.074;2023-05-11T04:09:28;100331.91;;;14.05;52.85
64792;BME280;51226;47.504;19.074;2023-05-11T04:12:31;100328.97;;;13.93;53.16
64792;BME280;51226;47.504;19.074;2023-05-11T04:15:33;100322.81;;;13.90;53.51
64792;BME280;51226;47.504;19.074;2023-05-11T04:18:38;100329.81;;;13.90;54.03
64792;BME280;51226;47.504;19.074;2023-05-11T04:21:41;100332.66;;;14.01;53.56
64792;BME280;51226;47.504;19.074;2023-05-11T04:24:43;100336.13;;;14.00;53.62
64792;BME280;51226;47.504;19.074;2023-05-11T04:27:46;100341.69;;;14.12;53.42
64792;BME280;51226;47.504;19.074;2023-05-11T04:30:55;100340.69;;;14.07;54.06
64792;BME280;51226;47.504;19.074;2023-05-11T04:33:58;100346.00;;;14.10;53.60
64792;BME280;51226;47.504;19.074;2023-05-11T04:37:01;100348.78;;;14.18;53.38
64792;BME280;51226;47.504;19.074;2023-05-11T04:40:09;100348.06;;;14.23;53.29
64792;BME280;51226;47.504;19.074;2023-05-11T04:43:13;100356.78;;;14.22;53.03
64792;BME280;51226;47.504;19.074;2023-05-11T04:46:16;100355.28;;;14.34;52.33
64792;BME280;51226;47.504;19.074;2023-05-11T04:49:18;100356.78;;;14.22;53.38
64792;BME280;51226;47.504;19.074;2023-05-11T04:52:22;100352.53;;;14.29;52.05
64792;BME280;51226;47.504;19.074;2023-05-11T04:55:24;100356.13;;;14.33;51.99
64792;BME280;51226;47.504;19.074;2023-05-11T04:58:30;100362.56;;;14.47;49.57
64792;BME280;51226;47.504;19.074;2023-05-11T05:01:33;100353.53;;;14.34;48.59
64792;BME280;51226;47.504;19.074;2023-05-11T05:04:37;100356.41;;;14.46;47.66
64792;BME280;51226;47.504;19.074;2023-05-11T05:07:39;100358.44;;;14.58;47.39
64792;BME280;51226;47.504;19.074;2023-05-11T05:10:42;100368.63;;;14.44;48.60
64792;BME280;51226;47.504;19.074;2023-05-11T05:13:44;100357.28;;;14.45;47.33
64792;BME280;51226;47.504;19.074;2023-05-11T05:16:47;100361.16;;;14.63;46.32
64792;BME280;51226;47.504;19.074;2023-05-11T05:19:50;100363.84;;;14.64;46.51
64792;BME280;51226;47.504;19.074;2023-05-11T05:22:53;100355.78;;;14.57;46.50
64792;BME280;51226;47.504;19.074;2023-05-11T05:25:56;100363.50;;;14.51;46.74
64792;BME280;51226;47.504;19.074;2023-05-11T05:28:59;100375.03;;;14.57;46.32
64792;BME280;51226;47.504;19.074;2023-05-11T05:32:02;100364.34;;;14.50;46.58
64792;BME280;51226;47.504;19.074;2023-05-11T05:35:05;100371.28;;;14.46;46.59
64792;BME280;51226;47.504;19.074;2023-05-11T05:38:08;100365.63;;;14.66;45.85
64792;BME280;51226;47.504;19.074;2023-05-11T05:41:11;100368.22;;;14.64;45.90
64792;BME280;51226;47.504;19.074;2023-05-11T05:44:14;100364.97;;;14.38;46.88
64792;BME280;51226;47.504;19.074;2023-05-11T05:47:17;100369.37;;;14.39;47.81
64792;BME280;51226;47.504;19.074;2023-05-11T05:50:19;100376.34;;;14.37;47.72
64792;BME280;51226;47.504;19.074;2023-05-11T05:53:22;100373.56;;;14.69;46.41
64792;BME280;51226;47.504;19.074;2023-05-11T05:56:25;100382.22;;;14.64;46.17
64792;BME280;51226;47.504;19.074;2023-05-11T05:59:28;100389.28;;;14.67;46.78
64792;BME280;51226;47.504;19.074;2023-05-11T06:02:31;100384.12;;;14.72;48.36
64792;BME280;51226;47.504;19.074;2023-05-11T06:05:34;100393.44;;;15.00;46.00
64792;BME280;51226;47.504;19.074;2023-05-11T06:08:36;100388.16;;;14.97;48.05
64792;BME280;51226;47.504;19.074;2023-05-11T06:11:39;100387.00;;;15.30;45.59
64792;BME280;51226;47.504;19.074;2023-05-11T06:14:45;100383.94;;;15.52;44.42
64792;BME280;51226;47.504;19.074;2023-05-11T06:17:48;100382.19;;;15.53;46.21
64792;BME280;51226;47.504;19.074;2023-05-11T06:20:51;100379.81;;;15.68;45.56
64792;BME280;51226;47.504;19.074;2023-05-11T06:23:54;100381.94;;;15.88;45.26
64792;BME280;51226;47.504;19.074;2023-05-11T06:26:59;100377.13;;;16.17;43.81
64792;BME280;51226;47.504;19.074;2023-05-11T06:30:02;100382.19;;;16.05;47.38
64792;BME280;51226;47.504;19.074;2023-05-11T06:33:06;100371.78;;;16.11;47.24
64792;BME280;51226;47.504;19.074;2023-05-11T06:36:12;100376.37;;;16.26;47.50
64792;BME280;51226;47.504;19.074;2023-05-11T06:39:14;100381.09;;;16.50;45.22
64792;BME280;51226;47.504;19.074;2023-05-11T06:42:17;100381.25;;;16.61;44.79
64792;BME280;51226;47.504;19.074;2023-05-11T06:45:19;100379.87;;;16.89;44.03
64792;BME280;51226;47.504;19.074;2023-05-11T06:48:23;100371.19;;;16.96;45.22
64792;BME280;51226;47.504;19.074;2023-05-11T06:51:26;100368.66;;;17.04;45.86
64792;BME280;51226;47.504;19.074;2023-05-11T06:54:30;100368.81;;;17.19;44.24
64792;BME280;51226;47.504;19.074;2023-05-11T06:57:32;100374.34;;;17.44;42.82
64792;BME280;51226;47.504;19.074;2023-05-11T07:00:35;100363.97;;;17.66;41.91
64792;BME280;51226;47.504;19.074;2023-05-11T07:03:37;100367.72;;;17.89;42.53
64792;BME280;51226;47.504;19.074;2023-05-11T07:06:40;100352.84;;;18.02;42.04
64792;BME280;51226;47.504;19.074;2023-05-11T07:09:42;100359.06;;;18.12;42.96
64792;BME280;51226;47.504;19.074;2023-05-11T07:12:45;100352.19;;;18.36;40.14
64792;BME280;51226;47.504;19.074;2023-05-11T07:15:48;100358.38;;;18.44;42.46
64792;BME280;51226;47.504;19.074;2023-05-11T07:18:51;100354.00;;;18.43;39.90
64792;BME280;51226;47.504;19.074;2023-05-11T07:21:53;100362.84;;;18.51;41.61
64792;BME280;51226;47.504;19.074;2023-05-11T07:24:56;100346.16;;;18.69;42.25
64792;BME280;51226;47.504;19.074;2023-05-11T07:27:58;100341.00;;;18.87;40.21
64792;BME280;51226;47.504;19.074;2023-05-11T07:31:01;100350.75;;;19.12;39.01
64792;BME280;51226;47.504;19.074;2023-05-11T07:34:04;100340.19;;;19.15;37.32
64792;BME280;51226;47.504;19.074;2023-05-11T07:37:07;100344.63;;;19.22;38.19
64792;BME280;51226;47.504;19.074;2023-05-11T07:40:10;100333.16;;;19.32;37.12
64792;BME280;51226;47.504;19.074;2023-05-11T07:43:13;100336.72;;;19.54;38.24
64792;BME280;51226;47.504;19.074;2023-05-11T07:46:16;100335.81;;;19.68;36.20
64792;BME280;51226;47.504;19.074;2023-05-11T07:49:19;100336.75;;;19.88;36.19
64792;BME280;51226;47.504;19.074;2023-05-11T07:52:21;100335.81;;;20.12;38.88
64792;BME280;51226;47.504;19.074;2023-05-11T07:55:26;100334.84;;;20.44;37.50
64792;BME280;51226;47.504;19.074;2023-05-11T07:58:31;100338.31;;;20.71;37.78
64792;BME280;51226;47.504;19.074;2023-05-11T08:01:35;100347.00;;;21.05;35.02
64792;BME280;51226;47.504;19.074;2023-05-11T08:04:38;100342.44;;;21.23;36.71
64792;BME280;51226;47.504;19.074;2023-05-11T08:07:40;100343.22;;;21.42;33.96
64792;BME280;51226;47.504;19.074;2023-05-11T08:10:43;100339.63;;;21.55;35.97
64792;BME280;51226;47.504;19.074;2023-05-11T08:13:46;100334.91;;;21.85;35.30
64792;BME280;51226;47.504;19.074;2023-05-11T08:16:48;100332.75;;;22.26;31.55
64792;BME280;51226;47.504;19.074;2023-05-11T08:19:51;100336.09;;;22.46;32.48
64792;BME280;51226;47.504;19.074;2023-05-11T08:22:54;100329.66;;;22.67;32.45
64792;BME280;51226;47.504;19.074;2023-05-11T08:25:57;100323.88;;;23.01;32.64
64792;BME280;51226;47.504;19.074;2023-05-11T08:28:59;100321.84;;;23.20;31.25
64792;BME280;51226;47.504;19.074;2023-05-11T08:32:02;100316.13;;;23.46;31.88
64792;BME280;51226;47.504;19.074;2023-05-11T08:35:05;100312.22;;;23.69;31.35
64792;BME280;51226;47.504;19.074;2023-05-11T08:38:08;100309.03;;;23.98;29.92
64792;BME280;51226;47.504;19.074;2023-05-11T08:41:11;100309.38;;;24.27;29.26
64792;BME280;51226;47.504;19.074;2023-05-11T08:44:14;100314.41;;;24.42;28.43
64792;BME280;51226;47.504;19.074;2023-05-11T08:47:17;100306.91;;;24.64;30.71
64792;BME280;51226;47.504;19.074;2023-05-11T08:50:25;100302.81;;;24.88;28.10
64792;BME280;51226;47.504;19.074;2023-05-11T08:53:27;100306.47;;;25.22;28.63
64792;BME280;51226;47.504;19.074;2023-05-11T08:56:30;100303.25;;;25.81;26.26
64792;BME280;51226;47.504;19.074;2023-05-11T08:59:33;100292.16;;;26.29;25.48
64792;BME280;51226;47.504;19.074;2023-05-11T09:02:36;100300.41;;;26.53;28.50
64792;BME280;51226;47.504;19.074;2023-05-11T09:05:39;100296.06;;;26.80;25.12
64792;BME280;51226;47.504;19.074;2023-05-11T09:08:43;100286.06;;;27.15;27.70
64792;BME280;51226;47.504;19.074;2023-05-11T09:11:47;100286.00;;;27.16;25.93
64792;BME280;51226;47.504;19.074;2023-05-11T09:14:51;100273.72;;;27.38;24.19
64792;BME280;51226;47.504;19.074;2023-05-11T09:17:54;100280.34;;;27.26;25.66
64792;BME280;51226;47.504;19.074;2023-05-11T09:20:57;100276.66;;;27.02;26.73
64792;BME280;51226;47.504;19.074;2023-05-11T09:24:01;100270.34;;;26.74;25.69
64792;BME280;51226;47.504;19.074;2023-05-11T09:27:05;100277.87;;;26.61;26.96
64792;BME280;51226;47.504;19.074;2023-05-11T09:30:10;100270.44;;;26.41;25.81
64792;BME280;51226;47.504;19.074;2023-05-11T09:33:16;100257.50;;;26.26;27.85
64792;BME280;51226;47.504;19.074;2023-05-11T09:36:22;100261.72;;;25.69;26.10
64792;BME280;51226;47.504;19.074;2023-05-11T09:39:32;100265.88;;;25.46;25.59
64792;BME280;51226;47.504;19.074;2023-05-11T09:42:58;100265.97;;;25.42;27.75
64792;BME280;51226;47.504;19.074;2023-05-11T09:46:00;100253.03;;;25.26;26.84
64792;BME280;51226;47.504;19.074;2023-05-11T09:49:08;100251.81;;;25.01;28.36
64792;BME280;51226;47.504;19.074;2023-05-11T09:52:12;100249.38;;;24.91;27.06
64792;BME280;51226;47.504;19.074;2023-05-11T09:55:16;100246.63;;;24.94;26.94
64792;BME280;51226;47.504;19.074;2023-05-11T09:58:19;100257.69;;;25.52;24.60
64792;BME280;51226;47.504;19.074;2023-05-11T10:01:29;100248.16;;;25.77;26.49
64792;BME280;51226;47.504;19.074;2023-05-11T10:04:32;100244.78;;;26.04;27.60
64792;BME280;51226;47.504;19.074;2023-05-11T10:07:35;100242.62;;;26.16;23.72
64792;BME280;51226;47.504;19.074;2023-05-11T10:10:38;100240.63;;;26.24;24.15
64792;BME280;51226;47.504;19.074;2023-05-11T10:13:42;100242.62;;;25.84;26.57
64792;BME280;51226;47.504;19.074;2023-05-11T10:16:45;100242.38;;;25.92;23.40
64792;BME280;51226;47.504;19.074;2023-05-11T10:19:48;100232.69;;;25.89;23.14
64792;BME280;51226;47.504;19.074;2023-05-11T10:22:52;100223.06;;;25.82;23.55
64792;BME280;51226;47.504;19.074;2023-05-11T10:25:55;100224.56;;;25.60;26.96
64792;BME280;51226;47.504;19.074;2023-05-11T10:29:01;100232.06;;;25.45;25.18
64792;BME280;51226;47.504;19.074;2023-05-11T10:32:05;100225.06;;;25.74;25.48
64792;BME280;51226;47.504;19.074;2023-05-11T10:35:09;100220.63;;;26.37;26.16
64792;BME280;51226;47.504;19.074;2023-05-11T10:38:11;100218.88;;;26.66;23.89
64792;BME280;51226;47.504;19.074;2023-05-11T10:41:24;100222.50;;;26.65;23.03
64792;BME280;51226;47.504;19.074;2023-05-11T10:50:59;100210.47;;;26.78;25.40
64792;BME280;51226;47.504;19.074;2023-05-11T10:57:12;100203.91;;;27.15;23.36
64792;BME280;51226;47.504;19.074;2023-05-11T11:03:57;100200.19;;;26.93;24.21
64792;BME280;51226;47.504;19.074;2023-05-11T11:07:04;100191.44;;;26.58;23.20
64792;BME280;51226;47.504;19.074;2023-05-11T11:10:07;100189.56;;;26.33;24.33
64792;BME280;51226;47.504;19.074;2023-05-11T11:13:14;100183.16;;;26.07;24.10
64792;BME280;51226;47.504;19.074;2023-05-11T11:16:17;100187.56;;;25.77;25.25
64792;BME280;51226;47.504;19.074;2023-05-11T11:25:49;100188.34;;;26.14;24.96
64792;BME280;51226;47.504;19.074;2023-05-11T11:38:55;100167.59;;;25.26;25.73
64792;BME280;51226;47.504;19.074;2023-05-11T11:42:05;100171.91;;;25.30;25.62
64792;BME280;51226;47.504;19.074;2023-05-11T11:45:25;100183.88;;;25.50;24.97
64792;BME280;51226;47.504;19.074;2023-05-11T11:48:38;100163.31;;;25.85;22.79
64792;BME280;51226;47.504;19.074;2023-05-11T11:51:43;100164.59;;;26.33;24.04
64792;BME280;51226;47.504;19.074;2023-05-11T11:54:45;100178.78;;;26.36;23.02
64792;BME280;51226;47.504;19.074;2023-05-11T11:57:49;100167.41;;;25.65;24.81
64792;BME280;51226;47.504;19.074;2023-05-11T12:00:52;100176.81;;;25.13;24.60
64792;BME280;51226;47.504;19.074;2023-05-11T12:07:00;100162.53;;;24.78;26.85
64792;BME280;51226;47.504;19.074;2023-05-11T12:10:05;100167.72;;;24.45;26.51
64792;BME280;51226;47.504;19.074;2023-05-11T12:13:07;100166.25;;;23.90;26.80
64792;BME280;51226;47.504;19.074;2023-05-11T12:16:11;100160.78;;;23.51;27.54
64792;BME280;51226;47.504;19.074;2023-05-11T12:19:22;100160.28;;;23.27;27.40
64792;BME280;51226;47.504;19.074;2023-05-11T12:22:25;100156.47;;;23.42;26.73
64792;BME280;51226;47.504;19.074;2023-05-11T12:25:27;100157.25;;;23.47;27.60
64792;BME280;51226;47.504;19.074;2023-05-11T12:28:31;100148.78;;;23.73;26.30
64792;BME280;51226;47.504;19.074;2023-05-11T12:31:40;100150.13;;;23.96;26.52
64792;BME280;51226;47.504;19.074;2023-05-11T12:34:50;100146.78;;;24.28;25.71
64792;BME280;51226;47.504;19.074;2023-05-11T12:37:58;100142.97;;;24.38;26.94
64792;BME280;51226;47.504;19.074;2023-05-11T12:41:01;100139.16;;;24.50;25.52
64792;BME280;51226;47.504;19.074;2023-05-11T12:44:04;100131.59;;;24.71;27.25
64792;BME280;51226;47.504;19.074;2023-05-11T12:47:07;100135.31;;;24.64;25.39
64792;BME280;51226;47.504;19.074;2023-05-11T12:50:12;100130.78;;;24.67;25.35
64792;BME280;51226;47.504;19.074;2023-05-11T12:53:16;100132.37;;;24.76;25.61
64792;BME280;51226;47.504;19.074;2023-05-11T12:56:19;100121.69;;;24.76;26.56
64792;BME280;51226;47.504;19.074;2023-05-11T12:59:22;100118.75;;;24.87;24.47
64792;BME280;51226;47.504;19.074;2023-05-11T13:02:25;100118.66;;;24.90;24.76
64792;BME280;51226;47.504;19.074;2023-05-11T13:05:28;100113.41;;;24.87;24.57
64792;BME280;51226;47.504;19.074;2023-05-11T13:08:30;100101.75;;;24.53;26.65
64792;BME280;51226;47.504;19.074;2023-05-11T13:11:33;100087.63;;;24.50;25.33
64792;BME280;51226;47.504;19.074;2023-05-11T13:14:36;100107.34;;;24.42;25.89
64792;BME280;51226;47.504;19.074;2023-05-11T13:17:40;100102.75;;;24.49;25.71
64792;BME280;51226;47.504;19.074;2023-05-11T13:20:43;100097.16;;;24.62;25.57
64792;BME280;51226;47.504;19.074;2023-05-11T13:23:50;100099.16;;;24.50;25.50
64792;BME280;51226;47.504;19.074;2023-05-11T13:26:52;100089.66;;;24.38;26.31
64792;BME280;51226;47.504;19.074;2023-05-11T13:29:56;100093.50;;;24.27;26.59
64792;BME280;51226;47.504;19.074;2023-05-11T13:32:58;100085.56;;;24.23;25.78
64792;BME280;51226;47.504;19.074;2023-05-11T13:36:03;100093.06;;;24.06;26.87
64792;BME280;51226;47.504;19.074;2023-05-11T13:39:06;100087.16;;;23.92;26.60
64792;BME280;51226;47.504;19.074;2023-05-11T13:42:09;100085.72;;;23.74;25.56
64792;BME280;51226;47.504;19.074;2023-05-11T13:45:11;100077.69;;;23.77;25.53
64792;BME280;51226;47.504;19.074;2023-05-11T13:48:15;100072.06;;;23.47;26.52
64792;BME280;51226;47.504;19.074;2023-05-11T13:51:17;100073.44;;;23.24;26.94
64792;BME280;51226;47.504;19.074;2023-05-11T13:54:20;100066.59;;;23.11;27.06
64792;BME280;51226;47.504;19.074;2023-05-11T13:57:23;100071.13;;;23.03;27.13
64792;BME280;51226;47.504;19.074;2023-05-11T14:00:26;100059.91;;;22.85;27.62
64792;BME280;51226;47.504;19.074;2023-05-11T14:03:29;100062.00;;;22.66;27.39
64792;BME280;51226;47.504;19.074;2023-05-11T14:06:33;100064.59;;;22.72;26.06
64792;BME280;51226;47.504;19.074;2023-05-11T14:09:36;100065.81;;;22.50;26.22
64792;BME280;51226;47.504;19.074;2023-05-11T14:12:39;100052.00;;;22.29;26.32
64792;BME280;51226;47.504;19.074;2023-05-11T14:15:42;100048.50;;;22.23;26.33
64792;BME280;51226;47.504;19.074;2023-05-11T14:18:45;100045.91;;;22.19;27.34
64792;BME280;51226;47.504;19.074;2023-05-11T14:21:48;100049.53;;;22.15;28.00
64792;BME280;51226;47.504;19.074;2023-05-11T14:24:50;100053.06;;;22.14;28.30
64792;BME280;51226;47.504;19.074;2023-05-11T14:27:53;100044.22;;;22.15;28.00
64792;BME280;51226;47.504;19.074;2023-05-11T14:30:59;100052.28;;;22.08;27.36
64792;BME280;51226;47.504;19.074;2023-05-11T14:34:02;100049.00;;;21.90;26.40
64792;BME280;51226;47.504;19.074;2023-05-11T14:37:04;100048.25;;;21.79;27.45
64792;BME280;51226;47.504;19.074;2023-05-11T14:40:07;100050.09;;;21.74;27.96
64792;BME280;51226;47.504;19.074;2023-05-11T14:43:10;100045.72;;;21.68;28.35
64792;BME280;51226;47.504;19.074;2023-05-11T14:46:12;100044.03;;;21.62;28.07
64792;BME280;51226;47.504;19.074;2023-05-11T14:49:15;100054.53;;;21.72;28.48
64792;BME280;51226;47.504;19.074;2023-05-11T14:52:18;100042.25;;;21.64;27.96
64792;BME280;51226;47.504;19.074;2023-05-11T14:55:20;100051.22;;;21.56;28.17
64792;BME280;51226;47.504;19.074;2023-05-11T14:58:23;100043.38;;;21.43;28.39
64792;BME280;51226;47.504;19.074;2023-05-11T15:01:26;100050.25;;;21.61;27.68
64792;BME280;51226;47.504;19.074;2023-05-11T15:04:28;100041.63;;;21.39;28.18
64792;BME280;51226;47.504;19.074;2023-05-11T15:07:31;100055.09;;;21.24;29.56
64792;BME280;51226;47.504;19.074;2023-05-11T15:10:34;100052.59;;;21.10;29.49
64792;BME280;51226;47.504;19.074;2023-05-11T15:13:40;100052.66;;;21.04;29.68
64792;BME280;51226;47.504;19.074;2023-05-11T15:16:43;100045.59;;;21.01;29.60
64792;BME280;51226;47.504;19.074;2023-05-11T15:19:46;100049.16;;;20.99;30.33
64792;BME280;51226;47.504;19.074;2023-05-11T15:22:48;100047.50;;;20.88;30.00
64792;BME280;51226;47.504;19.074;2023-05-11T15:25:51;100053.75;;;20.81;29.95
64792;BME280;51226;47.504;19.074;2023-05-11T15:28:54;100048.53;;;20.75;30.15
64792;BME280;51226;47.504;19.074;2023-05-11T15:31:57;100054.72;;;20.71;30.22
64792;BME280;51226;47.504;19.074;2023-05-11T15:34:59;100052.16;;;20.57;29.98
64792;BME280;51226;47.504;19.074;2023-05-11T15:38:02;100057.50;;;20.52;30.81
64792;BME280;51226;47.504;19.074;2023-05-11T15:41:05;100055.72;;;20.54;30.22
64792;BME280;51226;47.504;19.074;2023-05-11T15:44:09;100054.88;;;20.46;30.75
64792;BME280;51226;47.504;19.074;2023-05-11T15:47:11;100061.06;;;20.48;30.84
64792;BME280;51226;47.504;19.074;2023-05-11T15:50:14;100060.25;;;20.40;31.40
64792;BME280;51226;47.504;19.074;2023-05-11T15:53:17;100057.66;;;20.29;31.70
64792;BME280;51226;47.504;19.074;2023-05-11T15:56:19;100062.09;;;20.30;32.18
64792;BME280;51226;47.504;19.074;2023-05-11T15:59:23;100062.97;;;20.26;31.23
64792;BME280;51226;47.504;19.074;2023-05-11T16:02:26;100058.63;;;20.19;31.83
64792;BME280;51226;47.504;19.074;2023-05-11T16:05:29;100067.50;;;20.12;31.62
64792;BME280;51226;47.504;19.074;2023-05-11T16:08:33;100063.06;;;20.18;31.50
64792;BME280;51226;47.504;19.074;2023-05-11T16:11:35;100065.75;;;20.08;32.22
64792;BME280;51226;47.504;19.074;2023-05-11T16:14:38;100078.13;;;20.03;32.29
64792;BME280;51226;47.504;19.074;2023-05-11T16:17:41;100072.91;;;19.90;32.57
64792;BME280;51226;47.504;19.074;2023-05-11T16:20:44;100071.16;;;19.89;32.83
64792;BME280;51226;47.504;19.074;2023-05-11T16:23:47;100063.28;;;19.82;33.47
64792;BME280;51226;47.504;19.074;2023-05-11T16:26:50;100079.16;;;19.82;33.60
64792;BME280;51226;47.504;19.074;2023-05-11T16:29:52;100075.59;;;19.87;33.31
64792;BME280;51226;47.504;19.074;2023-05-11T16:32:55;100075.59;;;19.79;33.28
64792;BME280;51226;47.504;19.074;2023-05-11T16:35:58;100078.28;;;19.78;33.22